Time;durP1;ratioP1;P1;durP2;ratioP2;P2;SDS_P1;SDS_P2;PMS_P1;PMS_P2;Temp;Humidity;BMP_temperature;BMP_pressure;BME280_temperature;BME280_humidity;BME280_pressure;Samples;Min_cycle;Max_cycle;Signal;HPM_P1;HPM_P2
2021/12/22 04:58:33;;;;;;;11.75;6.97;;;;;;;1.84;58.40;101669.06;5606255;31;80214;-58
2021/12/22 05:01:37;;;;;;;11.95;7.18;;;;;;;2.19;66.35;101680.56;5583677;32;33620;-58
2021/12/22 05:04:40;;;;;;;15.82;8.75;;;;;;;2.10;56.12;101674.56;5583789;31;33453;-58
2021/12/22 05:07:43;;;;;;;12.75;7.57;;;;;;;2.10;56.07;101681.69;5583789;32;33534;-58
2021/12/22 05:10:46;;;;;;;12.73;7.78;;;;;;;2.14;55.39;101674.19;5583820;31;34282;-58
2021/12/22 05:13:48;;;;;;;13.18;7.82;;;;;;;1.98;55.83;101667.34;5584198;31;33708;-58
2021/12/22 05:16:53;;;;;;;11.15;7.40;;;;;;;1.94;55.82;101674.03;5584492;32;33698;-58
2021/12/22 05:19:57;;;;;;;12.02;7.82;;;;;;;1.85;57.31;101676.00;5584289;31;32334;-58
2021/12/22 05:22:59;;;;;;;9.95;7.37;;;;;;;1.88;58.29;101678.25;5584253;32;33552;-58
2021/12/22 05:26:03;;;;;;;11.95;7.90;;;;;;;1.88;56.59;101681.72;5584014;31;33533;-58
2021/12/22 05:29:05;;;;;;;13.32;8.43;;;;;;;2.05;55.98;101681.44;5584347;31;34214;-58
2021/12/22 05:32:07;;;;;;;15.82;8.60;;;;;;;1.91;56.22;101682.34;5584173;32;34321;-58
2021/12/22 05:35:11;;;;;;;12.65;8.15;;;;;;;1.82;61.36;101690.44;5584488;31;33134;-58
2021/12/22 05:38:14;;;;;;;12.02;8.48;;;;;;;1.80;58.72;101686.34;5573414;32;34374;-58
2021/12/22 05:41:16;;;;;;;13.45;8.63;;;;;;;1.95;57.07;101686.25;5564697;32;34355;-58
2021/12/22 05:44:18;;;;;;;12.00;7.90;;;;;;;1.92;56.43;101687.47;5564691;32;33739;-58
2021/12/22 05:47:20;;;;;;;12.77;7.90;;;;;;;1.85;57.02;101697.13;5564853;32;33708;-58
2021/12/22 05:50:24;;;;;;;12.75;8.48;;;;;;;1.94;56.46;101687.25;5566265;32;34085;-58
2021/12/22 05:53:27;;;;;;;11.30;7.65;;;;;;;1.77;57.80;101689.34;5580734;31;33547;-58
2021/12/22 05:56:30;;;;;;;12.40;7.90;;;;;;;1.88;56.67;101697.56;5583639;32;33697;-58
2021/12/22 05:59:32;;;;;;;12.98;8.82;;;;;;;1.79;56.95;101700.56;5583979;32;34418;-58
2021/12/22 06:02:34;;;;;;;12.07;7.78;;;;;;;1.91;57.66;101703.50;5583952;32;33748;-58
2021/12/22 06:05:38;;;;;;;11.15;7.65;;;;;;;2.01;56.35;101707.47;5583617;31;33887;-58
2021/12/22 06:08:40;;;;;;;12.77;7.90;;;;;;;1.94;57.14;101716.34;5576624;32;33565;-58
2021/12/22 06:11:42;;;;;;;11.73;7.85;;;;;;;1.76;61.13;101725.56;5568804;32;34403;-58
2021/12/22 06:14:44;;;;;;;12.85;7.70;;;;;;;1.81;56.50;101727.63;5570323;32;33787;-58
2021/12/22 06:17:53;;;;;;;14.52;8.30;;;;;;;1.86;55.90;101736.62;5570418;32;33756;-58
2021/12/22 06:20:55;;;;;;;12.48;7.65;;;;;;;1.87;56.61;101735.63;5555005;32;33771;-58
2021/12/22 06:23:57;;;;;;;13.85;8.40;;;;;;;2.02;56.41;101732.91;5570243;32;34380;-58
2021/12/22 06:27:00;;;;;;;14.90;8.55;;;;;;;1.90;55.88;101733.62;5570358;32;33601;-58
2021/12/22 06:30:02;;;;;;;11.23;7.97;;;;;;;1.95;55.93;101739.13;5569192;32;33686;-58
2021/12/22 06:33:05;;;;;;;11.73;7.85;;;;;;;1.95;57.30;101742.59;5570286;32;33528;-58
2021/12/22 06:36:07;;;;;;;11.88;7.55;;;;;;;1.92;56.21;101745.66;5553110;32;33679;-58
2021/12/22 06:39:09;;;;;;;16.20;9.70;;;;;;;2.08;56.28;101744.53;5561431;32;33687;-58
2021/12/22 06:42:12;;;;;;;13.10;8.75;;;;;;;2.07;55.76;101762.25;5570757;32;33592;-58
2021/12/22 06:45:15;;;;;;;15.45;9.15;;;;;;;1.91;62.00;101770.44;5570749;32;33760;-58
2021/12/22 06:48:17;;;;;;;16.02;9.05;;;;;;;2.01;56.73;101768.28;5570384;32;33633;-57
2021/12/22 06:51:20;;;;;;;10.95;8.30;;;;;;;2.07;55.99;101767.53;5570427;32;33789;-58
2021/12/22 06:54:22;;;;;;;15.20;9.23;;;;;;;2.04;57.03;101767.09;5569017;32;33141;-58
2021/12/22 06:57:24;;;;;;;13.77;7.87;;;;;;;2.02;57.10;101777.03;5570334;32;34208;-58
2021/12/22 07:00:28;;;;;;;12.25;8.07;;;;;;;2.02;54.79;101780.53;5570512;32;33173;-58
2021/12/22 07:03:31;;;;;;;14.52;8.98;;;;;;;2.17;55.38;101779.63;5570155;32;33573;-58
2021/12/22 07:06:33;;;;;;;12.40;7.60;;;;;;;2.15;54.90;101777.16;5570698;32;33598;-58
2021/12/22 07:09:35;;;;;;;12.65;7.60;;;;;;;2.21;55.04;101780.88;5568864;32;34369;-58
2021/12/22 07:12:42;;;;;;;14.48;8.13;;;;;;;2.25;54.21;101779.47;5559308;32;33761;-58
2021/12/22 07:15:46;;;;;;;13.18;7.97;;;;;;;2.18;54.09;101787.38;5551036;32;34077;-58
2021/12/22 07:18:48;;;;;;;13.95;8.48;;;;;;;2.15;55.44;101781.63;5553532;32;34385;-58
2021/12/22 07:21:50;;;;;;;11.98;7.93;;;;;;;2.21;56.61;101780.88;5569350;32;34298;-57
2021/12/22 07:24:53;;;;;;;13.68;7.85;;;;;;;2.12;53.86;101767.81;5559981;32;33676;-58
2021/12/22 07:27:55;;;;;;;14.18;9.27;;;;;;;2.33;54.20;101784.66;5564512;32;33767;-58
2021/12/22 07:30:57;;;;;;;20.12;11.40;;;;;;;2.31;54.11;101782.19;5570055;32;33765;-58
2021/12/22 07:34:20;;;;;;;19.62;11.32;;;;;;;2.36;55.50;101784.28;5570039;32;33595;-58
2021/12/22 07:37:41;;;;;;;19.42;11.40;;;;;;;2.40;55.12;101790.81;5570673;32;34404;-58
2021/12/22 07:40:43;;;;;;;18.25;11.85;;;;;;;2.39;55.78;101797.13;5550982;32;34474;-58
2021/12/22 07:43:46;;;;;;;19.23;12.85;;;;;;;2.47;55.80;101790.88;5565607;32;34480;-58
2021/12/22 07:46:48;;;;;;;18.83;12.07;;;;;;;2.39;56.24;101785.72;5570064;32;33467;-58
2021/12/22 07:49:51;;;;;;;20.80;12.50;;;;;;;2.33;56.51;101790.75;5569401;32;36401;-58
2021/12/22 07:52:53;;;;;;;18.75;11.90;;;;;;;2.50;55.78;101796.59;5569865;32;34233;-58
2021/12/22 07:55:55;;;;;;;18.58;10.75;;;;;;;2.50;55.03;101801.06;5569731;32;34395;-58
2021/12/22 07:58:58;;;;;;;18.42;11.30;;;;;;;2.58;54.88;101814.16;5569748;32;33607;-58
2021/12/22 08:02:00;;;;;;;22.17;11.98;;;;;;;2.42;55.92;101803.84;5569809;32;33598;-58
2021/12/22 08:05:04;;;;;;;16.70;10.43;;;;;;;2.40;55.12;101816.47;5570055;32;33429;-58
2021/12/22 08:08:06;;;;;;;15.88;10.30;;;;;;;2.54;55.28;101819.03;5569005;32;33817;-58
2021/12/22 08:11:08;;;;;;;15.90;9.88;;;;;;;2.62;54.00;101815.44;5569907;32;33641;-58
2021/12/22 08:14:10;;;;;;;17.83;11.40;;;;;;;2.68;54.77;101819.97;5569671;32;33615;-58
2021/12/22 08:17:13;;;;;;;17.25;10.65;;;;;;;2.60;54.66;101817.44;5569620;32;34456;-58
2021/12/22 08:20:17;;;;;;;15.93;10.60;;;;;;;2.66;54.81;101821.16;5566050;32;33699;-58
2021/12/22 08:23:19;;;;;;;19.20;11.63;;;;;;;2.51;54.80;101831.81;5568908;32;34330;-58
2021/12/22 08:26:21;;;;;;;20.25;10.52;;;;;;;2.46;54.54;101827.13;5569753;32;33805;-58
2021/12/22 08:29:24;;;;;;;18.50;9.93;;;;;;;2.68;53.73;101832.38;5569210;32;34446;-58
2021/12/22 08:32:26;;;;;;;18.90;11.32;;;;;;;2.81;52.67;101833.31;5568924;32;33239;-58
2021/12/22 08:35:30;;;;;;;19.15;12.23;;;;;;;2.62;53.78;101839.28;5569547;32;34324;-58
2021/12/22 08:41:56;;;;;;;17.15;11.23;;;;;;;2.79;53.44;101845.09;5568902;32;32222;-58
2021/12/22 08:44:58;;;;;;;18.92;12.18;;;;;;;2.76;53.55;101841.00;5569315;32;34281;-58
2021/12/22 08:48:01;;;;;;;16.37;11.40;;;;;;;2.83;53.55;101849.00;5569233;32;34395;-58
2021/12/22 08:51:03;;;;;;;18.83;11.05;;;;;;;2.87;52.78;101844.94;5568613;32;33647;-58
2021/12/22 08:54:06;;;;;;;19.00;11.50;;;;;;;2.69;53.64;101857.84;5564075;32;34359;-58
2021/12/22 08:57:08;;;;;;;21.27;12.52;;;;;;;2.64;54.14;101855.75;5550937;32;33733;-58
2021/12/22 09:00:11;;;;;;;19.62;11.12;;;;;;;2.66;54.02;101863.53;5567180;32;33848;-57
2021/12/22 09:03:14;;;;;;;19.37;10.75;;;;;;;2.68;53.12;101857.03;5568832;32;33767;-58
2021/12/22 09:06:16;;;;;;;18.30;11.23;;;;;;;2.75;53.66;101857.91;5567031;32;33690;-58
2021/12/22 09:09:20;;;;;;;15.05;10.30;;;;;;;2.82;53.30;101857.97;5567952;32;33356;-58
2021/12/22 09:12:22;;;;;;;20.73;12.00;;;;;;;2.84;52.30;101855.91;5567818;32;33678;-57
2021/12/22 09:15:25;;;;;;;17.52;10.82;;;;;;;2.77;52.66;101860.34;5567605;32;34280;-58
2021/12/22 09:18:27;;;;;;;17.27;10.52;;;;;;;2.75;53.08;101849.16;5565834;32;33733;-58
2021/12/22 09:21:30;;;;;;;18.65;11.05;;;;;;;2.74;51.35;101853.59;5560463;32;33090;-58
2021/12/22 09:24:32;;;;;;;18.40;10.50;;;;;;;2.86;51.67;101856.56;5558206;32;34395;-58
2021/12/22 09:27:34;;;;;;;18.75;11.02;;;;;;;2.90;51.60;101859.63;5554811;32;33842;-58
2021/12/22 09:30:38;;;;;;;15.23;9.48;;;;;;;3.00;51.97;101860.94;5549062;32;33624;-58
2021/12/22 09:33:41;;;;;;;15.20;9.60;;;;;;;3.09;66.11;101858.97;5560408;32;33320;-58
2021/12/22 09:36:43;;;;;;;17.50;9.63;;;;;;;3.30;55.56;101863.34;5567520;32;33636;-58
2021/12/22 09:39:45;;;;;;;15.57;9.43;;;;;;;3.27;59.69;101866.41;5558875;32;33650;-58
2021/12/22 09:42:48;;;;;;;16.87;10.02;;;;;;;3.37;51.15;101863.38;5568069;32;33559;-58
2021/12/22 09:45:59;;;;;;;14.32;8.98;;;;;;;3.38;48.78;101852.59;5570781;32;33569;-58
2021/12/22 09:49:59;;;;;;;15.25;9.18;;;;;;;3.28;50.56;101857.44;5570270;32;33804;-58
2021/12/22 09:52:30;;;;;;;16.02;9.80;;;;;;;3.34;50.38;101853.19;5569297;32;34374;-58
2021/12/22 09:55:34;;;;;;;16.70;9.35;;;;;;;3.30;54.49;101852.75;5569958;32;33696;-57
2021/12/22 09:58:39;;;;;;;15.23;9.73;;;;;;;3.35;49.52;101846.87;5570044;32;34345;-58
2021/12/22 10:01:42;;;;;;;14.40;9.85;;;;;;;3.41;53.20;101844.25;5570387;32;33535;-58
2021/12/22 10:04:46;;;;;;;15.10;10.18;;;;;;;3.48;50.93;101841.66;5569790;32;34511;-58
2021/12/22 10:08:23;;;;;;;17.75;10.05;;;;;;;4.15;64.23;101840.00;5570254;32;33577;-58
2021/12/22 10:11:28;;;;;;;14.40;9.23;;;;;;;3.77;49.26;101837.84;5556683;32;33818;-58
2021/12/22 10:14:30;;;;;;;17.10;10.55;;;;;;;3.71;50.06;101836.03;5558254;32;33747;-58
2021/12/22 10:17:43;;;;;;;19.52;11.23;;;;;;;3.75;49.97;101839.91;5570586;32;33353;-58
2021/12/22 10:20:49;;;;;;;17.30;10.90;;;;;;;3.38;51.26;101843.81;5569887;32;34308;-58
2021/12/22 10:23:54;;;;;;;19.10;11.40;;;;;;;3.42;50.70;101839.78;5569907;32;34423;-58
2021/12/22 10:27:05;;;;;;;18.60;12.15;;;;;;;3.87;56.47;101846.25;5568907;32;33849;-58
2021/12/22 10:30:32;;;;;;;19.90;12.50;;;;;;;3.67;51.55;101830.28;5570017;32;33503;-57
2021/12/22 10:33:39;;;;;;;19.55;12.23;;;;;;;3.51;56.95;101835.94;5569113;32;33779;-58
2021/12/22 10:36:47;;;;;;;19.42;12.13;;;;;;;3.71;63.79;101834.19;5569278;32;33669;-58
2021/12/22 10:39:49;;;;;;;21.50;12.40;;;;;;;4.32;55.31;101835.12;5570588;32;33746;-57
2021/12/22 10:42:53;;;;;;;21.05;13.25;;;;;;;4.17;57.65;101830.84;5570273;32;34451;-58
2021/12/22 10:45:59;;;;;;;18.87;12.27;;;;;;;3.76;52.47;101833.59;5570051;32;34230;-58
2021/12/22 10:49:21;;;;;;;20.27;13.23;;;;;;;3.85;51.03;101831.56;5570078;32;34764;-58
2021/12/22 10:52:25;;;;;;;20.33;12.43;;;;;;;3.80;50.10;101829.50;5570059;32;34392;-58
2021/12/22 10:55:39;;;;;;;20.83;13.62;;;;;;;3.85;61.84;101827.09;5570091;32;34630;-58
2021/12/22 10:58:41;;;;;;;23.17;13.77;;;;;;;4.23;60.73;101824.69;5569300;32;34421;-58
2021/12/22 11:01:50;;;;;;;21.33;13.48;;;;;;;4.15;50.39;101818.78;5569536;32;34534;-58
2021/12/22 11:04:53;;;;;;;19.08;11.55;;;;;;;4.22;60.76;101822.25;5569417;32;33584;-58
2021/12/22 11:07:58;;;;;;;19.27;13.13;;;;;;;4.04;50.29;101814.91;5569478;32;33609;-58
2021/12/22 11:11:11;;;;;;;21.27;12.88;;;;;;;3.85;49.75;101818.31;5569281;32;34377;-57
2021/12/22 11:14:22;;;;;;;19.17;12.50;;;;;;;3.84;48.88;101819.31;5568534;32;34609;-58
2021/12/22 11:17:24;;;;;;;20.10;11.85;;;;;;;4.13;53.87;101816.31;5569665;32;33872;-58
2021/12/22 11:20:27;;;;;;;18.35;12.18;;;;;;;4.02;57.25;101811.62;5569492;32;34408;-58
2021/12/22 11:23:30;;;;;;;16.87;10.40;;;;;;;4.00;48.84;101811.78;5570205;31;33524;-58
2021/12/22 11:26:32;;;;;;;24.30;12.73;;;;;;;3.90;47.31;101808.72;5570203;32;34407;-58
2021/12/22 11:29:38;;;;;;;14.43;10.05;;;;;;;3.67;47.35;101811.72;5568558;32;33776;-58
2021/12/22 11:32:41;;;;;;;14.32;10.05;;;;;;;3.65;47.99;101813.75;5561233;32;33649;-57
2021/12/22 11:35:44;;;;;;;16.12;11.23;;;;;;;4.07;69.17;101805.69;5550338;32;34251;-58
2021/12/22 11:38:48;;;;;;;20.65;10.80;;;;;;;4.10;50.60;101800.78;5555913;32;33735;-58
2021/12/22 11:41:58;;;;;;;17.85;11.60;;;;;;;3.98;48.11;101797.94;5568954;32;33649;-58
2021/12/22 11:45:07;;;;;;;22.98;12.73;;;;;;;3.91;50.51;101796.28;5568904;32;34205;-58
2021/12/22 11:48:09;;;;;;;21.20;13.05;;;;;;;4.24;62.13;101804.31;5567370;32;33655;-58
2021/12/22 11:51:29;;;;;;;21.67;12.70;;;;;;;4.10;49.07;101790.19;5561266;32;33684;-58
2021/12/22 11:54:32;;;;;;;21.58;14.05;;;;;;;4.29;63.83;101791.22;5567250;32;33613;-58
2021/12/22 11:57:34;;;;;;;21.35;13.95;;;;;;;4.42;49.60;101787.75;5555953;32;33874;-58
2021/12/22 12:00:38;;;;;;;19.60;13.85;;;;;;;4.08;48.57;101797.53;5557158;32;33736;-57
2021/12/22 12:03:44;;;;;;;20.70;13.20;;;;;;;3.98;50.34;101789.16;5564205;32;34385;-58
2021/12/22 12:06:51;;;;;;;23.33;14.05;;;;;;;3.75;49.86;101785.03;5567877;32;34465;-58
2021/12/22 12:09:53;;;;;;;29.77;14.80;;;;;;;3.81;51.96;101786.06;5568806;32;34003;-58
2021/12/22 12:13:21;;;;;;;22.77;13.88;;;;;;;3.61;50.52;101783.34;5561072;32;33983;-58
2021/12/22 12:23:33;;;;;;;21.40;13.35;;;;;;;3.69;51.02;101775.22;5550273;32;33674;-58
2021/12/22 12:26:39;;;;;;;23.27;12.80;;;;;;;3.76;63.84;101775.22;5568241;32;33834;-58
2021/12/22 12:29:55;;;;;;;22.10;14.25;;;;;;;4.08;57.57;101775.50;5564106;32;33647;-57
2021/12/22 12:32:59;;;;;;;19.50;13.00;;;;;;;3.90;54.99;101782.19;5549918;32;33637;-58
2021/12/22 12:36:08;;;;;;;20.02;13.43;;;;;;;3.93;57.85;101775.66;5550808;32;34463;-58
2021/12/22 12:39:10;;;;;;;21.62;13.32;;;;;;;3.74;51.16;101767.47;5559369;32;33686;-58
2021/12/22 12:42:13;;;;;;;34.35;15.00;;;;;;;3.67;50.99;101766.63;5549166;32;34341;-58
2021/12/22 12:45:44;;;;;;;22.42;14.98;;;;;;;3.73;50.88;101768.47;5557290;32;33624;-58
2021/12/22 12:49:16;;;;;;;220.07;134.57;;;;;;;3.68;51.00;101762.97;5568853;32;33346;-58
2021/12/22 12:52:21;;;;;;;131.40;60.47;;;;;;;3.62;63.10;101762.97;5549328;32;33680;-58
2021/12/22 12:55:23;;;;;;;140.02;51.83;;;;;;;3.88;66.61;101764.84;5559523;32;34557;-58
2021/12/22 12:58:26;;;;;;;24.50;14.48;;;;;;;3.94;51.51;101761.38;5568154;32;34145;-58
2021/12/22 13:01:47;;;;;;;23.30;14.18;;;;;;;3.91;50.13;101767.09;5568725;32;34336;-58
2021/12/22 13:05:01;;;;;;;263.67;196.02;;;;;;;3.82;58.87;101768.31;5562376;32;33855;-58
2021/12/22 13:08:05;;;;;;;117.80;87.95;;;;;;;3.86;54.52;101761.56;5548863;32;33744;-58
2021/12/22 13:11:12;;;;;;;19.73;14.48;;;;;;;3.55;52.45;101762.94;5558360;32;33244;-58
2021/12/22 13:18:14;;;;;;;20.52;13.95;;;;;;;3.74;51.88;101759.53;5549840;32;33838;-58
2021/12/22 13:21:26;;;;;;;21.52;13.00;;;;;;;3.78;50.53;101761.78;5551831;32;33699;-58
2021/12/22 13:24:32;;;;;;;19.27;12.63;;;;;;;3.79;49.20;101760.75;5552012;32;33647;-58
2021/12/22 13:27:36;;;;;;;18.30;13.02;;;;;;;3.53;49.57;101762.31;5553370;32;34023;-58
2021/12/22 13:30:45;;;;;;;18.90;12.75;;;;;;;3.62;49.02;101766.44;5552024;32;33645;-57
2021/12/22 13:34:01;;;;;;;18.83;13.00;;;;;;;3.57;50.11;101758.22;5551753;32;34463;-58
2021/12/22 13:37:07;;;;;;;18.02;13.38;;;;;;;3.75;56.72;101768.28;5551699;32;33735;-58
2021/12/22 13:40:09;;;;;;;21.55;13.88;;;;;;;4.26;66.64;101764.25;5551941;32;33857;-58
2021/12/22 13:43:25;;;;;;;23.35;13.10;;;;;;;4.15;55.77;101774.47;5551891;32;33663;-58
2021/12/22 13:46:33;;;;;;;19.33;12.43;;;;;;;3.97;49.95;101764.47;5551793;32;33695;-58
2021/12/22 13:49:36;;;;;;;18.10;12.52;;;;;;;4.08;49.11;101770.19;5551680;32;34275;-58
2021/12/22 13:52:38;;;;;;;18.48;13.18;;;;;;;4.03;48.79;101773.44;5551712;32;33641;-58
2021/12/22 13:55:41;;;;;;;19.17;14.02;;;;;;;3.87;49.64;101777.28;5551491;32;33172;-58
2021/12/22 13:58:47;;;;;;;20.52;14.05;;;;;;;3.85;49.78;101767.91;5551293;32;33732;-57
2021/12/22 14:01:51;;;;;;;22.15;13.62;;;;;;;3.90;50.18;101768.09;5551686;32;33688;-58
2021/12/22 14:04:54;;;;;;;18.17;12.82;;;;;;;3.73;61.93;101767.66;5551777;32;33734;-58
2021/12/22 14:07:56;;;;;;;21.92;14.13;;;;;;;4.09;68.61;101769.97;5551834;32;33875;-58
2021/12/22 14:14:25;;;;;;;21.48;13.98;;;;;;;4.00;49.90;101763.22;5551456;32;33797;-58
2021/12/22 14:17:29;;;;;;;22.67;14.10;;;;;;;3.94;50.75;101761.38;5551426;32;33569;-58
2021/12/22 14:20:37;;;;;;;21.90;14.85;;;;;;;3.88;50.40;101760.38;5551446;32;33538;-57
2021/12/22 14:23:39;;;;;;;168.77;103.50;;;;;;;3.88;52.18;101763.03;5551480;32;33551;-58
2021/12/22 14:26:48;;;;;;;62.72;40.70;;;;;;;3.87;49.96;101765.84;5550101;32;33643;-58
2021/12/22 14:29:52;;;;;;;28.15;17.80;;;;;;;4.03;65.23;101760.16;5551050;32;34500;-58
2021/12/22 14:33:05;;;;;;;23.35;13.73;;;;;;;3.86;51.22;101764.22;5551294;32;33882;-58
2021/12/22 14:36:09;;;;;;;22.17;13.80;;;;;;;3.73;50.59;101760.53;5555220;32;33768;-58
2021/12/22 14:39:13;;;;;;;20.83;13.55;;;;;;;3.83;50.41;101761.97;5570721;31;33966;-58
2021/12/22 14:42:23;;;;;;;21.12;13.40;;;;;;;3.70;51.65;101763.56;5570899;32;34266;-58
2021/12/22 14:45:32;;;;;;;21.75;14.07;;;;;;;3.64;60.94;101764.41;5570424;32;33846;-58
2021/12/22 14:48:52;;;;;;;23.55;14.15;;;;;;;3.62;51.98;101757.66;5570493;32;34435;-58
2021/12/22 14:52:04;;;;;;;22.42;13.07;;;;;;;3.68;58.72;101762.16;5570854;32;33918;-58
2021/12/22 14:55:06;;;;;;;23.77;14.30;;;;;;;3.59;51.74;101764.16;5570508;32;33577;-58
2021/12/22 14:58:10;;;;;;;22.83;14.55;;;;;;;3.63;54.18;101756.63;5569907;32;34323;-58
2021/12/22 15:01:14;;;;;;;21.50;13.20;;;;;;;3.64;51.65;101755.59;5567461;32;34480;-58
2021/12/22 15:04:16;;;;;;;25.08;14.90;;;;;;;3.55;51.48;101760.28;5570478;32;34445;-58
2021/12/22 15:07:19;;;;;;;27.50;17.25;;;;;;;3.52;51.39;101761.50;5570669;32;33626;-58
2021/12/22 15:10:21;;;;;;;27.35;16.65;;;;;;;3.53;52.22;101759.66;5570416;32;34340;-58
2021/12/22 15:13:24;;;;;;;23.35;16.02;;;;;;;3.58;51.55;101754.59;5570605;32;33741;-58
2021/12/22 15:16:28;;;;;;;26.45;15.30;;;;;;;3.53;51.36;101755.16;5570480;32;33719;-58
2021/12/22 15:19:30;;;;;;;30.90;19.83;;;;;;;3.61;51.53;101751.53;5570137;32;33668;-58
2021/12/22 15:22:33;;;;;;;28.05;19.98;;;;;;;3.63;51.05;101751.31;5570405;32;33616;-58
2021/12/22 15:25:35;;;;;;;23.92;16.37;;;;;;;3.63;56.81;101757.44;5570520;32;33735;-58
2021/12/22 15:28:38;;;;;;;20.12;13.73;;;;;;;3.53;56.40;101755.16;5570234;32;33795;-58
2021/12/22 15:31:40;;;;;;;22.25;13.60;;;;;;;3.63;54.93;101754.78;5570321;32;33926;-58
2021/12/22 15:34:43;;;;;;;20.65;13.82;;;;;;;3.56;50.72;101756.63;5570145;32;33515;-58
2021/12/22 15:37:46;;;;;;;18.70;12.93;;;;;;;3.66;51.61;101751.75;5570055;32;33597;-58
2021/12/22 15:40:50;;;;;;;22.40;13.62;;;;;;;3.67;51.34;101748.06;5569265;32;33756;-57
2021/12/22 15:43:52;;;;;;;22.08;13.68;;;;;;;3.69;51.12;101758.47;5570279;32;33738;-58
2021/12/22 15:46:54;;;;;;;28.58;15.73;;;;;;;3.40;61.42;101754.31;5570174;32;33746;-58
2021/12/22 15:49:57;;;;;;;25.50;15.43;;;;;;;3.42;53.23;101750.47;5570379;32;33875;-58
2021/12/22 15:53:01;;;;;;;23.87;15.57;;;;;;;3.50;51.77;101754.75;5570255;32;33727;-58
2021/12/22 15:56:03;;;;;;;25.05;14.68;;;;;;;3.39;52.48;101753.50;5567428;32;34444;-58
2021/12/22 15:59:06;;;;;;;41.72;21.00;;;;;;;3.38;51.97;101759.81;5570139;32;33615;-58
2021/12/22 16:02:08;;;;;;;35.10;19.27;;;;;;;3.26;53.98;101764.06;5569079;32;34461;-58
2021/12/22 16:05:11;;;;;;;30.25;18.48;;;;;;;3.22;52.55;101763.62;5569675;32;34369;-58
2021/12/22 16:08:13;;;;;;;37.42;20.33;;;;;;;3.32;51.60;101762.44;5569883;32;33769;-58
2021/12/22 16:11:15;;;;;;;36.53;18.65;;;;;;;3.19;52.13;101761.38;5570027;32;33741;-58
2021/12/22 16:14:17;;;;;;;30.42;18.05;;;;;;;3.40;51.57;101771.03;5569860;32;34292;-58
2021/12/22 16:17:20;;;;;;;29.12;17.48;;;;;;;3.28;51.56;101776.09;5569807;32;33641;-58
2021/12/22 16:20:24;;;;;;;28.40;18.90;;;;;;;3.02;52.46;101773.31;5569868;32;33745;-58
2021/12/22 16:23:29;;;;;;;26.08;16.62;;;;;;;3.01;53.28;101771.66;5570067;32;34398;-58
2021/12/22 16:26:40;;;;;;;26.58;17.17;;;;;;;2.87;52.67;101791.16;5570120;32;33682;-58
2021/12/22 16:29:43;;;;;;;25.90;16.80;;;;;;;2.95;52.71;101791.00;5569928;32;33652;-58
2021/12/22 16:32:45;;;;;;;28.98;16.67;;;;;;;2.93;52.93;101790.38;5569832;32;34235;-58
2021/12/22 16:35:47;;;;;;;27.85;15.98;;;;;;;2.86;53.11;101787.69;5569696;32;33755;-58
2021/12/22 16:38:50;;;;;;;24.05;15.30;;;;;;;2.72;54.39;101800.03;5569696;32;34266;-58
2021/12/22 16:41:54;;;;;;;24.85;15.80;;;;;;;2.84;53.51;101802.94;5569727;32;34421;-58
